createdAt,value
2018-11-22T00:00:42.321Z,0.00
2018-11-22T00:01:42.432Z,0.00
2018-11-22T00:02:42.472Z,0.00
2018-11-22T00:03:42.365Z,0.00
2018-11-22T00:04:42.372Z,0.00
2018-11-22T00:05:42.393Z,0.00
2018-11-22T00:06:42.633Z,0.00
2018-11-22T00:07:42.410Z,0.00
2018-11-22T00:08:42.478Z,0.00
2018-11-22T00:09:42.444Z,0.00
2018-11-22T00:10:42.580Z,0.00
2018-11-22T00:11:42.743Z,0.00
2018-11-22T00:12:42.477Z,0.00
2018-11-22T00:13:42.497Z,0.00
2018-11-22T00:14:42.520Z,0.00
2018-11-22T00:15:42.522Z,0.00
2018-11-22T00:16:42.687Z,0.00
2018-11-22T00:17:42.544Z,0.00
2018-11-22T00:18:42.684Z,0.00
2018-11-22T00:19:42.705Z,0.00
2018-11-22T00:20:42.596Z,0.00
2018-11-22T00:21:42.714Z,0.00
2018-11-22T00:22:42.743Z,0.00
2018-11-22T00:23:42.631Z,0.00
2018-11-22T00:24:42.640Z,0.00
2018-11-22T00:25:42.648Z,0.00
2018-11-22T00:26:42.824Z,0.00
2018-11-22T00:27:42.677Z,0.00
2018-11-22T00:28:42.706Z,0.00
2018-11-22T00:29:42.726Z,0.00
2018-11-22T00:30:42.729Z,0.00
2018-11-22T00:31:42.885Z,0.00
2018-11-22T00:32:42.747Z,0.00
2018-11-22T00:33:42.772Z,0.00
2018-11-22T00:34:42.901Z,0.00
2018-11-22T00:35:42.787Z,0.00
2018-11-22T00:36:42.843Z,0.00
2018-11-22T00:37:42.935Z,0.00
2018-11-22T00:38:42.878Z,0.00
2018-11-22T00:39:42.841Z,0.00
2018-11-22T00:40:42.854Z,0.00
2018-11-22T00:41:42.868Z,0.00
2018-11-22T00:42:43.105Z,0.00
2018-11-22T00:43:42.910Z,0.00
2018-11-22T00:44:42.899Z,0.00
2018-11-22T00:45:42.925Z,0.00
2018-11-22T00:46:42.939Z,0.00
2018-11-22T00:47:43.052Z,0.00
2018-11-22T00:48:42.958Z,0.00
2018-11-22T00:49:43.095Z,0.00
2018-11-22T00:50:42.979Z,0.00
2018-11-22T00:51:42.991Z,0.00
2018-11-22T00:52:43.237Z,0.00
2018-11-22T00:53:43.024Z,0.00
2018-11-22T00:54:43.036Z,0.00
2018-11-22T00:55:43.050Z,0.00
2018-11-22T00:56:43.057Z,0.00
2018-11-22T00:57:43.233Z,0.00
2018-11-22T00:58:43.091Z,0.00
2018-11-22T00:59:43.229Z,0.00
2018-11-22T01:00:43.131Z,0.00
2018-11-22T01:01:43.168Z,0.00
2018-11-22T01:02:43.186Z,0.00
2018-11-22T01:03:43.160Z,0.00
2018-11-22T01:04:43.293Z,0.00
2018-11-22T01:05:43.194Z,0.00
2018-11-22T01:06:43.189Z,0.00
2018-11-22T01:07:43.386Z,0.00
2018-11-22T01:08:43.227Z,0.00
2018-11-22T01:09:43.358Z,0.00
2018-11-22T01:10:43.250Z,0.00
2018-11-22T01:11:43.365Z,0.00
2018-11-22T01:12:43.398Z,0.00
2018-11-22T01:13:43.282Z,0.00
2018-11-22T01:14:43.309Z,0.00
2018-11-22T01:15:43.438Z,0.00
2018-11-22T01:16:43.439Z,0.00
2018-11-22T01:17:43.468Z,0.00
2018-11-22T01:18:43.354Z,0.00
2018-11-22T01:19:43.380Z,0.00
2018-11-22T01:20:43.393Z,0.00
2018-11-22T01:21:43.550Z,0.00
2018-11-22T01:22:43.533Z,0.00
2018-11-22T01:23:43.420Z,0.00
2018-11-22T01:24:43.558Z,0.00
2018-11-22T01:25:43.570Z,0.00
2018-11-22T01:26:43.561Z,0.00
2018-11-22T01:27:43.597Z,0.00
2018-11-22T01:28:43.610Z,0.00
2018-11-22T01:29:43.504Z,0.00
2018-11-22T01:30:43.507Z,0.00
2018-11-22T01:31:43.723Z,0.00
2018-11-22T01:32:43.544Z,0.00
2018-11-22T01:33:43.559Z,0.00
2018-11-22T01:34:43.584Z,0.00
2018-11-22T01:35:43.575Z,0.00
2018-11-22T01:36:43.645Z,0.00
2018-11-22T01:37:43.733Z,0.00
2018-11-22T01:38:43.670Z,0.00
2018-11-22T01:39:43.639Z,0.00
2018-11-22T01:40:43.655Z,0.00
2018-11-22T01:41:43.870Z,0.00
2018-11-22T01:42:43.713Z,0.00
2018-11-22T01:43:43.689Z,0.00
2018-11-22T01:44:43.703Z,0.00
2018-11-22T01:45:43.715Z,0.00
2018-11-22T01:46:43.885Z,0.00
2018-11-22T01:47:43.867Z,0.00
2018-11-22T01:48:43.881Z,0.00
2018-11-22T01:49:43.763Z,0.00
2018-11-22T01:50:43.781Z,0.00
2018-11-22T01:51:43.887Z,0.00
2018-11-22T01:52:43.812Z,0.00
2018-11-22T01:53:43.941Z,0.00
2018-11-22T01:54:43.959Z,0.00
2018-11-22T01:55:43.848Z,0.00
2018-11-22T01:56:44.027Z,0.00
2018-11-22T01:57:43.912Z,0.00
2018-11-22T01:58:43.887Z,0.00
2018-11-22T01:59:44.023Z,0.00
2018-11-22T02:00:43.912Z,0.00
2018-11-22T02:01:44.072Z,0.00
2018-11-22T02:02:43.981Z,0.00
2018-11-22T02:03:44.074Z,0.00
2018-11-22T02:04:43.966Z,0.00
2018-11-22T02:05:43.995Z,0.00
2018-11-22T02:06:44.157Z,0.00
2018-11-22T02:07:44.037Z,0.00
2018-11-22T02:08:44.063Z,0.00
2018-11-22T02:09:44.088Z,0.00
2018-11-22T02:10:44.170Z,0.00
2018-11-22T02:11:44.212Z,0.00
2018-11-22T02:12:44.065Z,0.00
2018-11-22T02:13:44.205Z,0.00
2018-11-22T02:14:44.095Z,0.00
2018-11-22T02:15:44.108Z,0.00
2018-11-22T02:16:44.295Z,0.00
2018-11-22T02:17:44.255Z,0.00
2018-11-22T02:18:44.157Z,0.00
2018-11-22T02:19:44.289Z,0.00
2018-11-22T02:20:44.403Z,0.00
2018-11-22T02:21:44.313Z,0.00
2018-11-22T02:22:44.204Z,0.00
2018-11-22T02:23:44.220Z,0.00
2018-11-22T02:24:44.270Z,0.00
2018-11-22T02:25:44.355Z,0.00
2018-11-22T02:26:44.379Z,0.00
2018-11-22T02:27:44.266Z,0.00
2018-11-22T02:28:44.287Z,0.00
2018-11-22T02:29:44.289Z,0.00
2018-11-22T02:30:44.394Z,0.00
2018-11-22T02:31:44.328Z,0.00
2018-11-22T02:32:44.462Z,0.00
2018-11-22T02:33:44.442Z,0.00
2018-11-22T02:34:44.353Z,0.00
2018-11-22T02:35:44.384Z,0.00
2018-11-22T02:36:44.397Z,0.00
2018-11-22T02:37:44.395Z,0.00
2018-11-22T02:38:44.507Z,0.00
2018-11-22T02:39:44.422Z,0.00
2018-11-22T02:40:44.560Z,0.00
2018-11-22T02:41:44.468Z,0.00
2018-11-22T02:42:44.471Z,0.00
2018-11-22T02:43:44.574Z,0.00
2018-11-22T02:44:44.620Z,0.00
2018-11-22T02:45:44.514Z,0.00
2018-11-22T02:46:44.527Z,0.00
2018-11-22T02:47:44.575Z,0.00
2018-11-22T02:48:44.665Z,0.00
2018-11-22T02:49:44.562Z,0.00
2018-11-22T02:50:44.574Z,0.00
2018-11-22T02:51:44.599Z,0.00
2018-11-22T02:52:44.603Z,0.00
2018-11-22T02:53:44.790Z,0.00
2018-11-22T02:54:44.627Z,0.00
2018-11-22T02:55:44.642Z,0.00
2018-11-22T02:56:44.658Z,0.00
2018-11-22T02:57:44.683Z,0.00
2018-11-22T02:58:44.772Z,0.00
2018-11-22T02:59:44.697Z,0.00
2018-11-22T03:00:44.715Z,0.00
2018-11-22T03:01:44.730Z,0.00
2018-11-22T03:02:44.726Z,0.00
2018-11-22T03:03:44.765Z,0.00
2018-11-22T03:04:44.865Z,0.00
2018-11-22T03:05:44.822Z,0.00
2018-11-22T03:06:44.908Z,0.00
2018-11-22T03:07:44.926Z,0.00
2018-11-22T03:08:44.815Z,0.00
2018-11-22T03:09:45.005Z,0.00
2018-11-22T03:10:44.935Z,0.00
2018-11-22T03:11:44.861Z,0.00
2018-11-22T03:12:44.869Z,0.00
2018-11-22T03:13:44.882Z,0.00
2018-11-22T03:14:44.916Z,0.00
2018-11-22T03:15:45.017Z,0.00
2018-11-22T03:16:44.928Z,0.00
2018-11-22T03:17:44.929Z,0.00
2018-11-22T03:18:44.959Z,0.00
2018-11-22T03:19:45.088Z,0.00
2018-11-22T03:20:45.068Z,0.00
2018-11-22T03:21:45.112Z,0.00
2018-11-22T03:22:45.003Z,0.00
2018-11-22T03:23:45.139Z,0.00
2018-11-22T03:24:45.037Z,0.00
2018-11-22T03:25:45.264Z,0.00
2018-11-22T03:26:45.055Z,0.00
2018-11-22T03:27:45.069Z,0.00
2018-11-22T03:28:45.086Z,0.00
2018-11-22T03:29:45.219Z,0.00
2018-11-22T03:30:45.156Z,0.00
2018-11-22T03:31:45.249Z,0.00
2018-11-22T03:32:45.140Z,0.00
2018-11-22T03:33:45.164Z,0.00
2018-11-22T03:34:45.265Z,0.00
2018-11-22T03:35:45.300Z,0.00
2018-11-22T03:36:45.195Z,0.00
2018-11-22T03:37:45.329Z,0.00
2018-11-22T03:38:45.220Z,0.00
2018-11-22T03:39:45.340Z,0.00
2018-11-22T03:40:45.249Z,0.00
2018-11-22T03:41:45.296Z,0.00
2018-11-22T03:42:45.277Z,0.00
2018-11-22T03:43:45.295Z,0.00
2018-11-22T03:44:45.525Z,0.00
2018-11-22T03:45:45.439Z,0.00
2018-11-22T03:46:45.454Z,0.00
2018-11-22T03:47:45.341Z,0.00
2018-11-22T03:48:45.359Z,0.00
2018-11-22T03:49:50.394Z,0.00
2018-11-22T03:50:45.380Z,0.00
2018-11-22T03:51:45.397Z,0.00
2018-11-22T03:52:45.407Z,0.00
2018-11-22T03:53:45.422Z,0.00
2018-11-22T03:54:45.587Z,0.00
2018-11-22T03:55:45.442Z,0.00
2018-11-22T03:56:45.586Z,0.00
2018-11-22T03:57:45.499Z,0.00
2018-11-22T03:58:45.493Z,0.00
2018-11-22T03:59:45.597Z,0.00
2018-11-22T04:00:45.520Z,0.00
2018-11-22T04:01:45.527Z,0.00
2018-11-22T04:02:45.547Z,0.00
2018-11-22T04:03:45.683Z,0.00
2018-11-22T04:04:45.750Z,0.00
2018-11-22T04:05:45.706Z,0.00
2018-11-22T04:06:45.589Z,0.00
2018-11-22T04:07:45.658Z,0.00
2018-11-22T04:08:45.639Z,0.00
2018-11-22T04:09:45.644Z,0.00
2018-11-22T04:10:45.779Z,0.00
2018-11-22T04:11:45.758Z,0.00
2018-11-22T04:12:45.804Z,0.00
2018-11-22T04:13:45.689Z,0.00
2018-11-22T04:14:45.714Z,0.00
2018-11-22T04:15:45.848Z,0.00
2018-11-22T04:16:45.783Z,0.00
2018-11-22T04:17:45.875Z,0.00
2018-11-22T04:18:45.753Z,0.00
2018-11-22T04:19:45.788Z,0.00
2018-11-22T04:20:45.800Z,0.00
2018-11-22T04:21:45.899Z,0.00
2018-11-22T04:22:45.818Z,0.00
2018-11-22T04:23:45.838Z,0.00
2018-11-22T04:24:45.875Z,0.00
2018-11-22T04:25:45.857Z,0.00
2018-11-22T04:26:46.097Z,0.00
2018-11-22T04:27:45.888Z,0.00
2018-11-22T04:28:45.907Z,0.00
2018-11-22T04:29:46.039Z,0.00
2018-11-22T04:30:45.931Z,0.00
2018-11-22T04:31:46.074Z,0.00
2018-11-22T04:32:46.233Z,0.00
2018-11-22T04:33:45.966Z,0.00
2018-11-22T04:34:45.979Z,0.00
2018-11-22T04:35:46.005Z,0.00
2018-11-22T04:36:46.010Z,0.00
2018-11-22T04:37:46.094Z,0.00
2018-11-22T04:38:46.163Z,0.00
2018-11-22T04:39:46.048Z,0.00
2018-11-22T04:40:46.182Z,0.00
2018-11-22T04:41:46.082Z,0.00
2018-11-22T04:42:46.108Z,0.00
2018-11-22T04:43:46.109Z,0.00
2018-11-22T04:44:46.115Z,0.00
2018-11-22T04:45:46.256Z,0.00
2018-11-22T04:46:46.317Z,0.00
2018-11-22T04:47:46.291Z,0.00
2018-11-22T04:48:46.185Z,0.00
2018-11-22T04:49:46.191Z,0.00
2018-11-22T04:50:46.331Z,0.00
2018-11-22T04:51:46.272Z,0.00
2018-11-22T04:52:46.226Z,0.00
2018-11-22T04:53:46.246Z,0.00
2018-11-22T04:54:46.386Z,0.00
2018-11-22T04:55:46.266Z,0.00
2018-11-22T04:56:46.510Z,0.00
2018-11-22T04:57:46.306Z,0.00
2018-11-22T04:58:46.335Z,0.00
2018-11-22T04:59:46.331Z,0.00
2018-11-22T05:00:46.349Z,0.00
2018-11-22T05:01:46.545Z,0.00
2018-11-22T05:02:46.388Z,0.00
2018-11-22T05:03:46.383Z,0.00
2018-11-22T05:04:46.522Z,0.00
2018-11-22T05:05:46.533Z,0.00
2018-11-22T05:06:46.476Z,0.00
2018-11-22T05:07:46.451Z,0.00
2018-11-22T05:08:46.463Z,0.00
2018-11-22T05:09:46.468Z,0.00
2018-11-22T05:10:46.487Z,0.00
2018-11-22T05:11:46.718Z,0.00
2018-11-22T05:12:46.502Z,0.00
2018-11-22T05:13:46.536Z,0.00
2018-11-22T05:14:46.658Z,0.00
2018-11-22T05:15:46.552Z,0.00
2018-11-22T05:16:46.623Z,0.00
2018-11-22T05:17:46.587Z,0.00
2018-11-22T05:18:46.601Z,0.00
2018-11-22T05:19:46.614Z,0.00
2018-11-22T05:20:46.619Z,0.00
2018-11-22T05:21:46.823Z,0.00
2018-11-22T05:22:46.638Z,0.00
2018-11-22T05:23:46.652Z,0.00
2018-11-22T05:24:46.684Z,0.00
2018-11-22T05:25:46.684Z,0.00
2018-11-22T05:26:46.875Z,0.00
2018-11-22T05:27:46.843Z,0.00
2018-11-22T05:28:46.857Z,0.00
2018-11-22T05:29:46.746Z,0.00
2018-11-22T05:30:46.793Z,0.00
2018-11-22T05:31:46.878Z,0.00
2018-11-22T05:32:46.784Z,0.00
2018-11-22T05:33:46.795Z,0.00
2018-11-22T05:34:46.807Z,0.00
2018-11-22T05:35:46.869Z,0.00
2018-11-22T05:36:46.944Z,0.00
2018-11-22T05:37:46.857Z,0.00
2018-11-22T05:38:46.989Z,0.00
2018-11-22T05:39:46.883Z,0.00
2018-11-22T05:40:46.915Z,0.00
2018-11-22T05:41:47.010Z,0.00
2018-11-22T05:42:46.939Z,0.00
2018-11-22T05:43:46.982Z,0.00
2018-11-22T05:44:46.950Z,0.00
2018-11-22T05:45:46.968Z,0.00
2018-11-22T05:46:47.127Z,0.00
2018-11-22T05:47:46.995Z,0.00
2018-11-22T05:48:47.313Z,0.00
2018-11-22T05:49:47.035Z,0.00
2018-11-22T05:50:47.155Z,0.00
2018-11-22T05:51:47.323Z,0.00
2018-11-22T05:52:47.189Z,0.00
2018-11-22T05:53:47.198Z,0.00
2018-11-22T05:54:47.091Z,0.00
2018-11-22T05:55:47.121Z,0.00
2018-11-22T05:56:47.336Z,0.00
2018-11-22T05:57:47.129Z,0.00
2018-11-22T05:58:47.263Z,0.00
2018-11-22T05:59:47.157Z,0.00
2018-11-22T06:00:47.218Z,0.00
2018-11-22T06:01:47.275Z,0.00
2018-11-22T06:02:47.322Z,0.00
2018-11-22T06:03:47.211Z,0.00
2018-11-22T06:04:47.228Z,0.00
2018-11-22T06:05:47.363Z,0.00
2018-11-22T06:06:47.404Z,0.00
2018-11-22T06:07:47.266Z,0.00
2018-11-22T06:08:47.280Z,0.00
2018-11-22T06:09:47.291Z,0.00
2018-11-22T06:10:47.304Z,0.00
2018-11-22T06:11:47.418Z,0.00
2018-11-22T06:12:47.355Z,0.00
2018-11-22T06:13:47.477Z,0.00
2018-11-22T06:14:47.370Z,0.00
2018-11-22T06:15:47.494Z,0.00
2018-11-22T06:16:47.480Z,0.00
2018-11-22T06:17:47.394Z,0.00
2018-11-22T06:18:47.534Z,0.00
2018-11-22T06:19:47.549Z,0.00
2018-11-22T06:20:47.563Z,0.00
2018-11-22T06:21:47.553Z,0.00
2018-11-22T06:22:47.462Z,0.00
2018-11-22T06:23:47.474Z,0.00
2018-11-22T06:24:47.511Z,0.00
2018-11-22T06:25:47.522Z,0.00
2018-11-22T06:26:47.681Z,0.00
2018-11-22T06:27:47.542Z,0.00
2018-11-22T06:28:47.569Z,0.00
2018-11-22T06:29:47.577Z,0.00
2018-11-22T06:30:47.697Z,0.00
2018-11-22T06:31:47.742Z,0.00
2018-11-22T06:32:47.600Z,0.00
2018-11-22T06:33:47.626Z,0.00
2018-11-22T06:34:47.636Z,0.00
2018-11-22T06:35:47.766Z,0.00
2018-11-22T06:36:47.701Z,0.00
2018-11-22T06:37:47.791Z,0.00
2018-11-22T06:38:47.693Z,0.00
2018-11-22T06:39:47.701Z,0.00
2018-11-22T06:40:47.838Z,0.00
2018-11-22T06:41:47.782Z,0.00
2018-11-22T06:42:47.858Z,0.00
2018-11-22T06:43:47.878Z,0.00
2018-11-22T06:44:47.774Z,0.00
2018-11-22T06:45:47.782Z,0.00
2018-11-22T06:46:47.964Z,0.00
2018-11-22T06:47:47.799Z,0.00
2018-11-22T06:48:47.811Z,0.00
2018-11-22T06:49:47.835Z,0.00
2018-11-22T06:50:47.832Z,0.00
2018-11-22T06:51:48.081Z,0.00
2018-11-22T06:52:47.884Z,0.00
2018-11-22T06:53:47.892Z,0.00
2018-11-22T06:54:47.899Z,0.00
2018-11-22T06:55:51.635Z,0.00
2018-11-22T06:56:48.021Z,0.00
2018-11-22T06:57:47.952Z,0.00
2018-11-22T06:58:47.953Z,0.00
2018-11-22T06:59:48.091Z,0.00
2018-11-22T07:00:47.985Z,0.00
2018-11-22T07:01:48.265Z,0.00
2018-11-22T07:02:48.003Z,0.00
2018-11-22T07:03:48.013Z,0.00
2018-11-22T07:04:48.041Z,0.00
2018-11-22T07:05:48.166Z,0.00
2018-11-22T07:06:48.332Z,0.00
2018-11-22T07:07:48.075Z,0.00
2018-11-22T07:08:48.079Z,0.00
2018-11-22T07:09:48.097Z,0.00
2018-11-22T07:10:48.233Z,0.00
2018-11-22T07:11:48.124Z,0.00
2018-11-22T07:12:48.129Z,0.00
2018-11-22T07:14:48.160Z,0.00
2018-11-22T07:15:48.325Z,0.00
2018-11-22T07:16:48.243Z,0.00
2018-11-22T07:17:48.195Z,0.00
2018-11-22T07:18:48.212Z,0.00
2018-11-22T07:19:48.269Z,0.00
2018-11-22T07:20:48.406Z,0.00
2018-11-22T07:21:48.374Z,0.00
2018-11-22T07:22:48.264Z,0.00
2018-11-22T07:23:48.274Z,0.00
2018-11-22T07:24:48.293Z,0.00
2018-11-22T07:25:48.522Z,0.00
2018-11-22T07:26:48.309Z,0.00
2018-11-22T07:27:48.350Z,0.00
2018-11-22T07:28:48.353Z,0.00
2018-11-22T07:29:48.357Z,0.00
2018-11-22T07:30:48.463Z,0.00
2018-11-22T07:31:48.509Z,0.00
2018-11-22T07:32:48.414Z,0.00
2018-11-22T07:33:48.527Z,0.00
2018-11-22T07:34:48.439Z,0.00
2018-11-22T07:35:48.578Z,0.00
2018-11-22T07:36:48.442Z,0.00
2018-11-22T07:37:48.459Z,0.00
2018-11-22T07:38:48.474Z,0.00
2018-11-22T07:39:48.482Z,0.00
2018-11-22T07:40:48.486Z,0.00
2018-11-22T07:41:48.672Z,0.00
2018-11-22T07:42:50.625Z,0.00
2018-11-22T07:43:48.543Z,0.00
2018-11-22T07:44:48.545Z,0.00
2018-11-22T07:45:48.688Z,0.00
2018-11-22T07:46:48.722Z,0.00
2018-11-22T07:47:48.610Z,0.00
2018-11-22T07:48:48.645Z,0.00
2018-11-22T07:49:48.610Z,0.00
2018-11-22T07:50:48.630Z,0.00
2018-11-22T07:51:48.786Z,0.00
2018-11-22T07:52:48.781Z,0.00
2018-11-22T07:53:48.667Z,0.00
2018-11-22T07:54:48.681Z,0.00
2018-11-22T07:55:48.716Z,0.00
2018-11-22T07:56:48.859Z,0.00
2018-11-22T07:57:48.767Z,0.00
2018-11-22T07:58:48.727Z,0.00
2018-11-22T07:59:48.744Z,0.00
2018-11-22T08:00:48.885Z,0.00
2018-11-22T08:01:48.961Z,0.00
2018-11-22T08:02:48.788Z,0.00
2018-11-22T08:03:48.802Z,0.00
2018-11-22T08:04:48.938Z,5.63
2018-11-22T08:05:48.947Z,5.63
2018-11-22T08:06:49.115Z,5.63
2018-11-22T08:07:48.977Z,5.63
2018-11-22T08:08:48.859Z,11.25
2018-11-22T08:09:49.000Z,11.25
2018-11-22T08:10:48.886Z,11.25
2018-11-22T08:11:49.004Z,16.88
2018-11-22T08:12:49.012Z,16.88
2018-11-22T08:13:49.054Z,22.50
2018-11-22T08:14:48.954Z,22.50
2018-11-22T08:15:48.959Z,28.13
2018-11-22T08:16:49.124Z,28.13
2018-11-22T08:17:48.993Z,33.75
2018-11-22T08:18:48.993Z,39.38
2018-11-22T08:19:49.014Z,45.00
2018-11-22T08:20:49.049Z,45.00
2018-11-22T08:21:49.037Z,50.63
2018-11-22T08:22:49.276Z,56.25
2018-11-22T08:23:49.067Z,56.25
2018-11-22T08:24:49.082Z,61.88
2018-11-22T08:25:49.136Z,61.88
2018-11-22T08:26:49.273Z,67.50
2018-11-22T08:27:49.391Z,67.50
2018-11-22T08:28:49.135Z,73.13
2018-11-22T08:29:49.267Z,73.13
2018-11-22T08:30:49.284Z,73.13
2018-11-22T08:31:49.172Z,78.75
2018-11-22T08:32:52.659Z,84.38
2018-11-22T08:33:49.490Z,90.00
2018-11-22T08:34:49.263Z,95.63
2018-11-22T08:35:49.224Z,95.63
2018-11-22T08:36:49.254Z,101.25
2018-11-22T08:37:49.373Z,106.88
2018-11-22T08:38:49.408Z,112.50
2018-11-22T08:39:49.310Z,106.88
2018-11-22T08:40:49.292Z,106.88
2018-11-22T08:41:49.307Z,112.50
2018-11-22T08:42:55.152Z,118.13
2018-11-22T08:43:49.610Z,129.38
2018-11-22T08:44:49.474Z,123.75
2018-11-22T08:45:49.369Z,129.38
2018-11-22T08:46:49.373Z,129.38
2018-11-22T08:47:49.390Z,123.75
2018-11-22T08:48:49.498Z,118.13
2018-11-22T08:49:49.541Z,118.13
2018-11-22T08:50:49.420Z,123.75
2018-11-22T08:51:49.448Z,123.75
2018-11-22T08:52:49.463Z,151.88
2018-11-22T08:53:49.745Z,129.38
2018-11-22T08:54:49.607Z,129.38
2018-11-22T08:55:49.511Z,129.38
2018-11-22T08:56:49.634Z,135.00
2018-11-22T08:57:49.527Z,157.50
2018-11-22T08:58:49.701Z,174.38
2018-11-22T08:59:49.553Z,180.00
2018-11-22T09:00:49.693Z,180.00
2018-11-22T09:01:49.582Z,208.13
2018-11-22T09:02:49.621Z,219.38
2018-11-22T09:03:49.883Z,196.88
2018-11-22T09:04:49.679Z,174.38
2018-11-22T09:05:49.628Z,191.25
2018-11-22T09:06:49.772Z,225.00
2018-11-22T09:07:49.794Z,241.88
2018-11-22T09:08:49.728Z,247.50
2018-11-22T09:09:49.683Z,247.50
2018-11-22T09:10:49.720Z,253.13
2018-11-22T09:11:49.852Z,264.38
2018-11-22T09:12:49.867Z,258.75
2018-11-22T09:13:49.933Z,264.38
2018-11-22T09:14:49.759Z,264.38
2018-11-22T09:15:49.800Z,264.38
2018-11-22T09:16:49.925Z,270.00
2018-11-22T09:17:49.831Z,275.63
2018-11-22T09:18:50.014Z,275.63
2018-11-22T09:19:49.868Z,281.25
2018-11-22T09:20:49.873Z,281.25
2018-11-22T09:21:49.943Z,286.88
2018-11-22T09:22:49.899Z,292.50
2018-11-22T09:23:50.016Z,298.13
2018-11-22T09:24:49.955Z,292.50
2018-11-22T09:25:50.080Z,303.75
2018-11-22T09:26:49.969Z,309.38
2018-11-22T09:27:49.990Z,315.00
2018-11-22T09:28:50.125Z,320.63
2018-11-22T09:29:50.023Z,320.63
2018-11-22T09:30:50.049Z,331.88
2018-11-22T09:31:50.063Z,337.50
2018-11-22T09:32:50.208Z,343.13
2018-11-22T09:33:50.242Z,343.13
2018-11-22T09:34:50.142Z,348.75
2018-11-22T09:35:50.183Z,360.00
2018-11-22T09:36:50.164Z,360.00
2018-11-22T09:37:50.174Z,360.00
2018-11-22T09:38:50.466Z,365.63
2018-11-22T09:39:50.334Z,371.25
2018-11-22T09:40:50.229Z,371.25
2018-11-22T09:41:50.256Z,303.75
2018-11-22T09:42:50.281Z,388.13
2018-11-22T09:43:50.420Z,405.00
2018-11-22T09:44:50.313Z,388.13
2018-11-22T09:45:50.452Z,421.88
2018-11-22T09:46:50.351Z,455.63
2018-11-22T09:47:50.495Z,405.00
2018-11-22T09:48:50.695Z,292.50
2018-11-22T09:49:50.427Z,399.38
2018-11-22T09:50:50.427Z,438.75
2018-11-22T09:51:50.480Z,438.75
2018-11-22T09:52:50.463Z,348.75
2018-11-22T09:53:50.607Z,483.75
2018-11-22T09:54:50.519Z,568.13
2018-11-22T09:55:50.545Z,641.25
2018-11-22T09:56:50.535Z,669.38
2018-11-22T09:57:50.694Z,534.38
2018-11-22T09:58:50.751Z,691.88
2018-11-22T09:59:50.611Z,714.38
2018-11-22T10:00:50.647Z,675.00
2018-11-22T10:01:50.651Z,472.50
2018-11-22T10:02:50.684Z,444.38
2018-11-22T10:03:50.912Z,635.63
2018-11-22T10:04:50.987Z,461.25
2018-11-22T10:05:50.826Z,579.38
2018-11-22T10:06:50.879Z,523.13
2018-11-22T10:07:50.786Z,461.25
2018-11-22T10:08:50.908Z,613.13
2018-11-22T10:09:50.812Z,511.88
2018-11-22T10:10:50.844Z,618.75
2018-11-22T10:11:50.978Z,607.50
2018-11-22T10:12:50.929Z,680.63
2018-11-22T10:13:51.015Z,528.75
2018-11-22T10:14:50.925Z,483.75
2018-11-22T10:15:50.950Z,759.38
2018-11-22T10:16:51.015Z,798.75
2018-11-22T10:17:50.996Z,759.38
2018-11-22T10:18:51.126Z,613.13
2018-11-22T10:19:51.024Z,753.75
2018-11-22T10:20:51.178Z,770.63
2018-11-22T10:21:51.073Z,495.00
2018-11-22T10:22:51.092Z,708.75
2018-11-22T10:23:51.286Z,663.75
2018-11-22T10:24:51.260Z,916.88
2018-11-22T10:25:51.157Z,871.88
2018-11-22T10:26:51.177Z,860.63
2018-11-22T10:27:51.205Z,838.13
2018-11-22T10:28:51.330Z,883.13
2018-11-22T10:29:51.290Z,950.63
2018-11-22T10:30:51.317Z,877.50
2018-11-22T10:31:51.344Z,877.50
2018-11-22T10:32:51.305Z,950.63
2018-11-22T10:33:51.430Z,1006.88
2018-11-22T10:34:51.370Z,1068.75
2018-11-22T10:35:51.507Z,1018.13
2018-11-22T10:36:51.412Z,956.25
2018-11-22T10:37:51.687Z,635.63
2018-11-22T10:38:51.544Z,483.75
2018-11-22T10:39:51.474Z,922.50
2018-11-22T10:40:51.621Z,905.63
2018-11-22T10:41:51.523Z,905.63
2018-11-22T10:42:51.537Z,950.63
2018-11-22T10:43:51.633Z,956.25
2018-11-22T10:44:51.595Z,900.00
2018-11-22T10:45:51.609Z,708.75
2018-11-22T10:46:51.639Z,950.63
2018-11-22T10:47:51.660Z,950.63
2018-11-22T10:48:51.831Z,883.13
2018-11-22T10:49:51.703Z,939.38
2018-11-22T10:50:51.855Z,973.13
2018-11-22T10:51:51.757Z,1012.50
2018-11-22T10:52:51.798Z,1057.50
2018-11-22T10:53:51.908Z,1012.50
2018-11-22T10:54:51.826Z,1029.38
2018-11-22T10:55:52.004Z,1035.00
2018-11-22T10:56:51.866Z,1040.63
2018-11-22T10:57:53.901Z,1051.88
2018-11-22T10:58:52.075Z,1063.13
2018-11-22T10:59:51.951Z,1040.63
2018-11-22T11:00:51.982Z,1085.63
2018-11-22T11:01:52.014Z,1091.25
2018-11-22T11:02:52.144Z,1136.25
2018-11-22T11:03:52.139Z,1170.00
2018-11-22T11:04:52.104Z,1170.00
2018-11-22T11:05:52.098Z,1175.63
2018-11-22T11:06:52.262Z,1170.00
2018-11-22T11:07:52.140Z,1153.13
2018-11-22T11:08:52.257Z,1220.63
2018-11-22T11:09:52.239Z,1147.50
2018-11-22T11:10:52.336Z,1029.38
2018-11-22T11:11:52.231Z,1181.25
2018-11-22T11:12:52.257Z,1237.50
2018-11-22T11:13:52.334Z,1113.75
2018-11-22T11:14:52.514Z,1215.00
2018-11-22T11:15:52.351Z,1271.25
2018-11-22T11:16:52.369Z,1226.25
2018-11-22T11:17:52.556Z,1254.38
2018-11-22T11:18:52.412Z,1282.50
2018-11-22T11:19:52.456Z,1321.88
2018-11-22T11:20:52.586Z,1338.75
2018-11-22T11:21:52.502Z,1355.63
2018-11-22T11:22:52.712Z,1327.50
2018-11-22T11:23:52.548Z,1350.00
2018-11-22T11:24:52.623Z,1355.63
2018-11-22T11:25:52.581Z,1355.63
2018-11-22T11:26:52.634Z,1400.63
2018-11-22T11:27:52.908Z,1451.25
2018-11-22T11:28:52.666Z,1451.25
2018-11-22T11:29:52.687Z,1462.50
2018-11-22T11:30:52.738Z,1473.75
2018-11-22T11:31:52.742Z,1276.88
2018-11-22T11:32:52.876Z,1485.00
2018-11-22T11:33:52.909Z,1468.13
2018-11-22T11:34:52.856Z,1445.63
2018-11-22T11:35:52.854Z,1434.38
2018-11-22T11:36:52.875Z,1518.75
2018-11-22T11:37:52.958Z,1558.13
2018-11-22T11:38:52.927Z,1541.25
2018-11-22T11:39:52.939Z,1591.88
2018-11-22T11:40:52.970Z,1636.88
2018-11-22T11:41:53.007Z,1681.88
2018-11-22T11:42:53.074Z,1636.88
2018-11-22T11:43:53.174Z,1620.00
2018-11-22T11:44:53.075Z,1642.50
2018-11-22T11:45:53.156Z,1704.38
2018-11-22T11:46:53.148Z,1732.50
2018-11-22T11:47:53.199Z,1670.63
2018-11-22T11:48:53.304Z,1676.25
2018-11-22T11:49:53.333Z,1771.88
2018-11-22T11:50:53.407Z,1760.63
2018-11-22T11:51:53.270Z,1828.13
2018-11-22T11:52:53.315Z,1867.50
2018-11-22T11:53:53.443Z,1895.63
2018-11-22T11:54:53.360Z,1895.63
2018-11-22T11:55:53.428Z,1895.63
2018-11-22T11:56:53.398Z,1951.88
2018-11-22T11:57:53.431Z,1918.13
2018-11-22T11:58:53.614Z,1805.63
2018-11-22T11:59:53.474Z,1940.63
2018-11-22T12:00:53.520Z,1957.50
2018-11-22T12:01:53.536Z,1974.38
2018-11-22T12:02:53.566Z,2047.50
2018-11-22T12:03:53.912Z,1946.25
2018-11-22T12:04:53.745Z,1918.13
2018-11-22T12:05:53.663Z,1946.25
2018-11-22T12:06:53.690Z,1974.38
2018-11-22T12:07:53.700Z,1951.88
2018-11-22T12:08:53.847Z,1642.50
2018-11-22T12:09:56.306Z,2064.38
2018-11-22T12:10:53.933Z,2008.13
2018-11-22T12:11:53.834Z,2002.50
2018-11-22T12:12:53.852Z,2115.00
2018-11-22T12:13:53.869Z,2115.00
2018-11-22T12:14:53.900Z,2115.00
2018-11-22T12:15:54.041Z,2098.13
2018-11-22T12:16:53.960Z,2233.13
2018-11-22T12:17:54.035Z,1563.75
2018-11-22T12:18:54.009Z,2261.25
2018-11-22T12:19:54.053Z,2137.50
2018-11-22T12:20:54.246Z,2154.38
2018-11-22T12:21:54.104Z,2266.88
2018-11-22T12:22:54.128Z,2278.13
2018-11-22T12:23:54.214Z,2289.38
2018-11-22T12:24:54.211Z,2261.25
2018-11-22T12:25:54.268Z,2300.63
2018-11-22T12:26:54.366Z,2311.88
2018-11-22T12:27:54.262Z,2295.00
2018-11-22T12:28:54.314Z,2295.00
2018-11-22T12:29:54.465Z,2306.25
2018-11-22T12:30:54.469Z,2238.75
2018-11-22T12:31:54.396Z,2261.25
2018-11-22T12:32:54.549Z,2250.00
2018-11-22T12:33:54.447Z,2328.75
2018-11-22T12:34:54.488Z,2401.88
2018-11-22T12:35:54.680Z,2356.88
2018-11-22T12:36:54.598Z,2306.25
2018-11-22T12:37:54.601Z,2345.63
2018-11-22T12:38:54.607Z,2463.75
2018-11-22T12:39:54.678Z,2435.63
2018-11-22T12:40:54.833Z,2373.75
2018-11-22T12:41:54.805Z,2401.88
2018-11-22T12:42:54.841Z,2491.88
2018-11-22T12:43:54.866Z,2491.88
2018-11-22T12:44:54.901Z,2435.63
2018-11-22T12:45:54.967Z,2458.13
2018-11-22T12:46:54.835Z,2469.38
2018-11-22T12:47:54.992Z,2446.88
2018-11-22T12:48:54.907Z,2430.00
2018-11-22T12:49:55.058Z,2441.25
2018-11-22T12:50:55.065Z,2306.25
2018-11-22T12:51:55.107Z,2458.13
2018-11-22T12:52:55.139Z,2626.88
2018-11-22T12:53:55.049Z,2767.50
2018-11-22T12:54:55.087Z,2818.13
2018-11-22T12:55:55.278Z,2739.38
2018-11-22T12:56:55.260Z,2818.13